Time;durP1;ratioP1;P1;durP2;ratioP2;P2;SDS_P1;SDS_P2;PMS_P1;PMS_P2;Temp;Humidity;BMP_temperature;BMP_pressure;BME280_temperature;BME280_humidity;BME280_pressure;Samples;Min_cycle;Max_cycle;Signal;HPM_P1;HPM_P2
2022/06/03 00:02:18;;;;;;;12.40;7.80;;;15.20;84.00;;;;;;5002083;28;20385;-66
2022/06/03 00:04:59;;;;;;;9.65;7.10;;;15.20;84.10;;;;;;4995688;28;20374;-65
2022/06/03 00:07:43;;;;;;;10.50;7.35;;;15.10;84.50;;;;;;5009217;28;20559;-66
2022/06/03 00:10:19;;;;;;;11.10;7.13;;;15.10;84.70;;;;;;4994331;28;20133;-66
2022/06/03 00:13:32;;;;;;;9.88;6.50;;;15.10;84.70;;;;;;5006028;28;20493;-66
2022/06/03 00:16:09;;;;;;;8.70;6.85;;;15.00;84.60;;;;;;5004022;28;20061;-66
2022/06/03 00:18:53;;;;;;;10.75;7.47;;;15.00;85.20;;;;;;4994838;28;20497;-66
2022/06/03 00:21:46;;;;;;;9.15;7.03;;;15.00;85.50;;;;;;5002574;28;20065;-66
2022/06/03 00:24:43;;;;;;;10.65;6.95;;;15.00;85.60;;;;;;5013979;28;20500;-65
2022/06/03 00:27:29;;;;;;;11.32;7.85;;;15.00;85.80;;;;;;5004125;28;20066;-65
2022/06/03 00:30:17;;;;;;;10.50;7.85;;;15.00;86.00;;;;;;4999188;28;20572;-66
2022/06/03 00:32:53;;;;;;;12.00;7.57;;;14.90;86.10;;;;;;5000118;28;20494;-65
2022/06/03 00:35:33;;;;;;;9.85;8.05;;;14.90;86.00;;;;;;4994437;28;20545;-65
2022/06/03 00:38:20;;;;;;;10.00;6.60;;;14.80;86.80;;;;;;5006154;28;20116;-65
2022/06/03 00:40:59;;;;;;;11.13;7.78;;;14.80;86.60;;;;;;5013929;28;20030;-66
2022/06/03 00:43:59;;;;;;;10.40;7.65;;;14.70;86.70;;;;;;5002650;28;20326;-66
2022/06/03 00:47:13;;;;;;;11.85;7.82;;;14.70;86.70;;;;;;4997670;28;20036;-65
2022/06/03 00:50:14;;;;;;;10.80;7.63;;;14.70;86.70;;;;;;4991425;28;20113;-65
2022/06/03 00:53:08;;;;;;;10.23;7.28;;;14.70;86.90;;;;;;5002266;28;20081;-65
2022/06/03 00:55:37;;;;;;;11.88;8.07;;;14.60;87.20;;;;;;5009756;28;20042;-65
2022/06/03 00:58:28;;;;;;;12.13;7.70;;;14.60;87.50;;;;;;4997404;28;20038;-65
2022/06/03 01:01:20;;;;;;;11.60;7.50;;;14.60;87.60;;;;;;4992527;28;20030;-65
2022/06/03 01:03:45;;;;;;;12.88;8.43;;;14.60;87.90;;;;;;4993805;28;20030;-65
2022/06/03 01:06:14;;;;;;;10.40;7.43;;;14.60;87.90;;;;;;4994676;28;20034;-65
2022/06/03 01:09:07;;;;;;;10.55;7.22;;;14.60;88.40;;;;;;5012668;28;20022;-64
2022/06/03 01:12:02;;;;;;;11.65;8.02;;;14.50;88.60;;;;;;5003381;28;20065;-65
2022/06/03 01:14:37;;;;;;;15.35;8.15;;;14.50;88.90;;;;;;5011019;28;20108;-65
2022/06/03 01:17:23;;;;;;;9.73;7.45;;;14.50;88.90;;;;;;4999940;28;20068;-65
2022/06/03 01:19:52;;;;;;;9.85;7.10;;;14.50;89.30;;;;;;5010852;28;20038;-65
2022/06/03 01:22:38;;;;;;;10.63;7.05;;;14.50;89.30;;;;;;5011016;28;20064;-65
2022/06/03 01:25:31;;;;;;;11.70;7.88;;;14.50;89.60;;;;;;5006551;28;20030;-65
2022/06/03 01:28:30;;;;;;;10.98;7.20;;;14.40;89.40;;;;;;4997307;28;20117;-66
2022/06/03 01:31:13;;;;;;;8.77;6.40;;;14.40;89.80;;;;;;4998332;28;20030;-66
2022/06/03 01:34:00;;;;;;;10.13;7.65;;;14.40;89.80;;;;;;4996468;28;20072;-65
2022/06/03 01:36:56;;;;;;;10.88;7.20;;;14.30;90.00;;;;;;5010974;28;20026;-65
2022/06/03 01:39:21;;;;;;;10.35;7.45;;;14.30;90.20;;;;;;4994758;28;20089;-65
2022/06/03 01:41:53;;;;;;;12.05;7.65;;;14.30;90.30;;;;;;4997988;28;20133;-65
2022/06/03 01:44:41;;;;;;;11.27;7.90;;;14.30;90.40;;;;;;4996364;28;20022;-65
2022/06/03 01:47:25;;;;;;;9.85;7.20;;;14.30;90.50;;;;;;4999884;28;20034;-66
2022/06/03 01:50:09;;;;;;;13.73;7.75;;;14.20;90.30;;;;;;5009615;28;20035;-65
2022/06/03 01:53:00;;;;;;;10.65;7.20;;;14.20;90.50;;;;;;4992153;28;20073;-65
2022/06/03 01:55:46;;;;;;;12.25;7.22;;;14.20;90.50;;;;;;4992343;28;20034;-65
2022/06/03 01:58:24;;;;;;;9.85;7.53;;;14.20;90.60;;;;;;4992435;28;20038;-65
2022/06/03 02:01:11;;;;;;;10.55;7.43;;;14.20;90.70;;;;;;4992865;28;20037;-66
2022/06/03 02:03:49;;;;;;;10.88;7.63;;;14.20;90.80;;;;;;4992802;28;20041;-66
2022/06/03 02:06:44;;;;;;;10.57;7.85;;;14.20;90.80;;;;;;4995541;28;20550;-66
2022/06/03 02:09:40;;;;;;;11.07;7.35;;;14.20;90.90;;;;;;5001124;28;20037;-65
2022/06/03 02:12:29;;;;;;;11.88;7.47;;;14.10;90.80;;;;;;4999110;28;20560;-65
2022/06/03 02:15:24;;;;;;;12.25;7.93;;;14.10;90.80;;;;;;4992614;28;20061;-65
2022/06/03 02:18:20;;;;;;;11.27;7.22;;;14.10;90.90;;;;;;4992549;28;20050;-64
2022/06/03 02:21:09;;;;;;;10.20;7.20;;;14.10;91.00;;;;;;5009924;28;20049;-65
2022/06/03 02:23:51;;;;;;;9.95;7.22;;;14.10;91.20;;;;;;5011942;28;20030;-65
2022/06/03 02:26:54;;;;;;;9.65;7.45;;;14.10;91.30;;;;;;4999107;28;20025;-65
2022/06/03 02:32:56;;;;;;;10.82;8.02;;;14.00;91.50;;;;;;4991923;28;20050;-65
2022/06/03 02:35:41;;;;;;;12.15;8.02;;;14.00;91.50;;;;;;4991541;28;20026;-65
2022/06/03 02:38:22;;;;;;;11.93;8.07;;;14.00;91.70;;;;;;4999868;28;20107;-66
2022/06/03 02:41:00;;;;;;;10.48;7.35;;;14.00;91.90;;;;;;4992261;28;20394;-66
2022/06/03 02:43:59;;;;;;;16.27;8.23;;;14.00;92.00;;;;;;5010574;28;20037;-66
2022/06/03 02:46:38;;;;;;;12.25;7.75;;;14.00;92.00;;;;;;4992945;28;20033;-66
2022/06/03 02:49:41;;;;;;;9.75;7.78;;;14.00;92.00;;;;;;5006305;28;20026;-66
2022/06/03 02:52:39;;;;;;;10.35;7.07;;;13.90;92.00;;;;;;4992148;28;20085;-66
2022/06/03 02:55:18;;;;;;;10.05;7.55;;;13.90;92.20;;;;;;4992003;28;20164;-67
2022/06/03 02:58:05;;;;;;;11.63;7.43;;;13.90;92.30;;;;;;5000742;28;20038;-66
2022/06/03 03:01:08;;;;;;;11.65;7.80;;;13.90;92.40;;;;;;4999752;28;20030;-66
2022/06/03 03:03:43;;;;;;;10.90;8.48;;;13.90;92.50;;;;;;5011858;28;20365;-65
2022/06/03 03:06:56;;;;;;;11.73;8.00;;;14.00;92.60;;;;;;5009978;28;20026;-66
2022/06/03 03:09:40;;;;;;;10.20;7.93;;;14.00;92.50;;;;;;4991620;28;20046;-66
2022/06/03 03:12:21;;;;;;;10.45;7.47;;;13.90;92.60;;;;;;4998917;28;20053;-65
2022/06/03 03:15:06;;;;;;;10.05;7.47;;;14.00;92.70;;;;;;4997937;28;20065;-66
2022/06/03 03:17:50;;;;;;;;;;;13.90;92.70;;;;;;5010325;28;20030;-66
2022/06/03 03:20:57;;;;;;;11.52;7.20;;;13.90;92.30;;;;;;4991608;28;19917;-67
2022/06/03 03:23:34;;;;;;;10.70;7.20;;;13.90;92.60;;;;;;4989716;28;20039;-67
2022/06/03 03:26:15;;;;;;;11.02;7.85;;;13.90;92.80;;;;;;4995323;28;20029;-67
2022/06/03 03:28:57;;;;;;;9.05;6.55;;;13.90;92.80;;;;;;5010627;28;20042;-67
2022/06/03 03:31:40;;;;;;;9.18;6.95;;;13.90;92.90;;;;;;5008677;28;20135;-67
2022/06/03 03:34:23;;;;;;;10.90;7.28;;;13.90;92.80;;;;;;4992252;28;20037;-66
2022/06/03 03:36:56;;;;;;;12.07;7.57;;;13.90;92.90;;;;;;4991068;28;20390;-67
2022/06/03 03:39:46;;;;;;;12.85;7.00;;;13.90;92.90;;;;;;4991638;28;20121;-66
2022/06/03 03:42:21;;;;;;;11.20;6.90;;;13.90;92.90;;;;;;4999647;28;20033;-66
2022/06/03 03:45:19;;;;;;;10.10;7.22;;;13.90;92.90;;;;;;5004837;28;20062;-66
2022/06/03 03:47:45;;;;;;;9.23;6.85;;;13.90;92.90;;;;;;5001344;28;20106;-66
2022/06/03 03:50:48;;;;;;;10.13;6.70;;;14.00;92.90;;;;;;4995388;28;20114;-65
2022/06/03 03:53:34;;;;;;;11.05;6.30;;;14.00;93.00;;;;;;4994386;28;20034;-65
2022/06/03 03:56:18;;;;;;;10.85;6.40;;;14.00;92.90;;;;;;4995181;28;20088;-65
2022/06/03 03:58:52;;;;;;;9.80;6.38;;;14.00;93.00;;;;;;4995026;28;20035;-66
2022/06/03 04:01:44;;;;;;;11.93;6.47;;;14.00;93.00;;;;;;4995452;28;20037;-66
2022/06/03 04:04:24;;;;;;;9.90;6.57;;;14.00;93.10;;;;;;5013697;28;20034;-66
2022/06/03 04:07:11;;;;;;;8.25;5.85;;;14.00;93.10;;;;;;5009357;28;20036;-66
2022/06/03 04:09:58;;;;;;;8.80;6.38;;;14.10;93.20;;;;;;5014040;28;20050;-66
2022/06/03 04:13:06;;;;;;;10.00;6.72;;;14.10;93.20;;;;;;4999381;28;20041;-66
2022/06/03 04:16:13;;;;;;;10.65;6.97;;;14.10;93.10;;;;;;5009317;28;20088;-66
2022/06/03 04:19:19;;;;;;;9.07;6.63;;;14.10;93.10;;;;;;4991692;28;20035;-66
2022/06/03 04:22:15;;;;;;;10.10;6.65;;;14.20;93.40;;;;;;4986786;28;20042;-66
2022/06/03 04:25:17;;;;;;;8.23;6.07;;;14.20;93.30;;;;;;4994200;28;20069;-66
2022/06/03 04:28:00;;;;;;;10.00;6.90;;;14.20;93.40;;;;;;5003395;28;20038;-66
2022/06/03 04:30:54;;;;;;;8.15;6.05;;;14.20;93.50;;;;;;4996274;28;20120;-66
2022/06/03 04:33:51;;;;;;;9.23;6.97;;;14.20;93.60;;;;;;5008648;28;20042;-66
2022/06/03 04:36:36;;;;;;;10.07;6.30;;;14.30;93.50;;;;;;5003755;28;20066;-66
2022/06/03 04:39:39;;;;;;;9.38;6.65;;;14.30;93.60;;;;;;5011126;28;20057;-66
2022/06/03 04:42:50;;;;;;;9.32;6.43;;;14.40;93.60;;;;;;5008529;28;20038;-65
2022/06/03 04:45:53;;;;;;;8.32;6.15;;;14.40;93.60;;;;;;5012046;28;20049;-66
2022/06/03 04:48:55;;;;;;;8.57;6.03;;;14.50;93.50;;;;;;4993986;28;20185;-66
2022/06/03 04:51:29;;;;;;;9.32;6.45;;;14.60;93.60;;;;;;5001186;28;20038;-65
2022/06/03 04:54:04;;;;;;;8.07;5.95;;;14.60;93.70;;;;;;4994026;28;20030;-66
2022/06/03 04:57:03;;;;;;;9.38;6.13;;;14.60;93.70;;;;;;4997300;28;20113;-65
2022/06/03 04:59:47;;;;;;;8.20;5.72;;;14.70;93.70;;;;;;5003134;28;20053;-66
2022/06/03 05:02:50;;;;;;;11.40;6.05;;;14.70;93.70;;;;;;5011126;28;20029;-66
2022/06/03 05:05:16;;;;;;;9.00;5.70;;;14.80;93.60;;;;;;5012476;28;20030;-66
2022/06/03 05:07:57;;;;;;;8.27;5.90;;;14.90;93.30;;;;;;5011326;28;21079;-66
2022/06/03 05:10:22;;;;;;;7.20;4.80;;;14.90;93.10;;;;;;5003841;28;20502;-66
2022/06/03 05:12:54;;;;;;;5.68;4.13;;;15.00;92.90;;;;;;5006159;28;20080;-66
2022/06/03 05:16:07;;;;;;;5.90;4.47;;;15.10;92.40;;;;;;4998776;28;20050;-66
2022/06/03 05:18:44;;;;;;;7.38;4.18;;;15.20;92.20;;;;;;5000658;28;20409;-66
2022/06/03 05:21:32;;;;;;;7.70;4.70;;;15.20;92.10;;;;;;4991460;28;20394;-66
2022/06/03 05:24:32;;;;;;;7.60;3.97;;;15.30;91.90;;;;;;4993557;28;20085;-66
2022/06/03 05:27:25;;;;;;;5.88;4.60;;;15.40;91.70;;;;;;4999500;28;20409;-66
2022/06/03 05:30:08;;;;;;;5.47;4.10;;;15.40;91.60;;;;;;4993161;28;20093;-66
2022/06/03 05:33:16;;;;;;;5.93;4.40;;;15.50;91.40;;;;;;4996428;28;20480;-67
2022/06/03 05:36:28;;;;;;;5.75;3.83;;;15.50;91.30;;;;;;5003904;28;20073;-65
2022/06/03 05:39:15;;;;;;;9.02;3.85;;;15.60;91.30;;;;;;4993666;28;20394;-67
2022/06/03 05:44:55;;;;;;;;;;;15.70;91.20;;;;;;4998733;28;20508;-68
2022/06/03 05:47:42;;;;;;;4.82;2.97;;;15.80;91.20;;;;;;5007211;28;19920;-64
2022/06/03 05:50:14;;;;;;;9.23;3.60;;;15.90;90.80;;;;;;5011454;28;20450;-64
2022/06/03 05:53:07;;;;;;;6.47;3.50;;;15.90;90.60;;;;;;5009851;28;20095;-67
2022/06/03 05:56:10;;;;;;;4.78;3.03;;;16.00;90.50;;;;;;5010062;28;20529;-64
2022/06/03 05:58:46;;;;;;;10.02;3.38;;;16.10;90.30;;;;;;4994555;28;20022;-68
2022/06/03 06:01:41;;;;;;;8.63;3.92;;;16.20;90.00;;;;;;4999655;28;20496;-69
2022/06/03 06:04:20;;;;;;;5.70;3.10;;;16.30;90.10;;;;;;5000091;28;20493;-66
2022/06/03 06:07:24;;;;;;;7.68;3.25;;;16.40;89.70;;;;;;4995627;28;20493;-67
2022/06/03 06:09:52;;;;;;;3.88;2.80;;;16.50;90.00;;;;;;5008942;28;20509;-67
2022/06/03 06:12:22;;;;;;;7.45;3.13;;;16.50;90.00;;;;;;5000091;28;20498;-68
2022/06/03 06:15:16;;;;;;;4.97;2.53;;;16.60;89.90;;;;;;5004243;28;20080;-68
2022/06/03 06:18:08;;;;;;;2.78;2.30;;;16.70;89.00;;;;;;5008576;28;20523;-68
2022/06/03 06:21:01;;;;;;;3.50;2.45;;;16.80;88.60;;;;;;4995657;28;20117;-68
2022/06/03 06:23:39;;;;;;;4.07;2.33;;;16.90;88.10;;;;;;4998147;28;20536;-67
2022/06/03 06:26:32;;;;;;;5.03;2.50;;;17.00;87.60;;;;;;4995223;28;20038;-66
2022/06/03 06:29:12;;;;;;;4.15;2.63;;;17.10;87.40;;;;;;5000535;28;20025;-68
2022/06/03 06:32:05;;;;;;;4.03;2.88;;;17.20;87.40;;;;;;4998456;28;20136;-69
2022/06/03 06:35:07;;;;;;;3.47;2.63;;;17.30;87.10;;;;;;4995923;28;20031;-67
2022/06/03 06:37:36;;;;;;;3.28;2.15;;;17.40;86.80;;;;;;5011642;28;20400;-68
2022/06/03 06:40:14;;;;;;;4.22;2.70;;;17.50;86.20;;;;;;5015135;28;20026;-67
2022/06/03 06:42:59;;;;;;;5.68;2.13;;;17.50;86.00;;;;;;4993347;28;20129;-67
2022/06/03 06:45:36;;;;;;;2.35;2.00;;;17.60;85.20;;;;;;5007899;28;20102;-67
2022/06/03 06:48:29;;;;;;;3.35;2.10;;;17.70;85.00;;;;;;4999223;28;20033;-68
2022/06/03 06:51:29;;;;;;;6.40;2.63;;;17.80;84.70;;;;;;5004383;28;20108;-68
2022/06/03 06:54:11;;;;;;;3.30;2.10;;;17.90;84.10;;;;;;4998968;28;20042;-66
2022/06/03 06:56:45;;;;;;;4.18;2.50;;;17.90;83.70;;;;;;5010074;28;20053;-66
2022/06/03 06:59:19;;;;;;;6.03;2.90;;;18.00;83.20;;;;;;5008278;28;20045;-66
2022/06/03 07:01:50;;;;;;;4.53;2.30;;;18.10;82.80;;;;;;5010884;28;20118;-66
2022/06/03 07:04:24;;;;;;;4.82;2.88;;;18.20;82.80;;;;;;5011807;28;20088;-66
2022/06/03 07:06:54;;;;;;;3.00;2.10;;;18.20;82.70;;;;;;5008531;28;20033;-66
2022/06/03 07:09:55;;;;;;;5.00;2.03;;;18.30;81.80;;;;;;5007374;28;20331;-66
2022/06/03 07:12:29;;;;;;;3.03;2.03;;;18.40;81.60;;;;;;4988173;28;20194;-66
2022/06/03 07:15:05;;;;;;;5.45;2.47;;;18.50;81.80;;;;;;5013974;28;20033;-65
2022/06/03 07:20:48;;;;;;;3.72;1.77;;;18.60;80.80;;;;;;4993434;28;20045;-66
2022/06/03 07:23:41;;;;;;;2.70;1.80;;;18.70;79.60;;;;;;5012859;28;20124;-66
2022/06/03 07:26:31;;;;;;;3.35;1.98;;;18.80;78.40;;;;;;5022328;28;20022;-67
2022/06/03 07:29:17;;;;;;;4.55;1.80;;;18.80;78.00;;;;;;5012026;28;20507;-66
2022/06/03 07:31:53;;;;;;;2.92;1.80;;;18.90;77.70;;;;;;5007442;28;20038;-66
2022/06/03 07:34:25;;;;;;;6.20;2.45;;;19.00;77.30;;;;;;5007344;28;20088;-67
2022/06/03 07:37:13;;;;;;;2.22;1.60;;;19.10;77.30;;;;;;5007892;28;20030;-67
2022/06/03 07:40:01;;;;;;;2.47;1.42;;;19.20;76.30;;;;;;4996377;28;20034;-67
2022/06/03 07:42:48;;;;;;;3.33;2.35;;;19.20;75.80;;;;;;4999633;28;20027;-67
2022/06/03 07:45:40;;;;;;;2.38;1.70;;;19.30;75.20;;;;;;4995317;28;20041;-67
2022/06/03 07:48:11;;;;;;;13.38;3.00;;;19.30;74.90;;;;;;5019638;28;20667;-67
2022/06/03 07:51:10;;;;;;;3.88;1.90;;;19.30;74.20;;;;;;5014143;28;20037;-67
2022/06/03 07:53:47;;;;;;;3.60;1.88;;;19.40;74.00;;;;;;5018412;28;20049;-66
2022/06/03 07:56:29;;;;;;;4.38;2.22;;;19.40;74.00;;;;;;5018723;28;20079;-66
2022/06/03 07:58:59;;;;;;;22.77;4.38;;;19.50;74.20;;;;;;5001375;28;20033;-65
2022/06/03 08:01:28;;;;;;;4.43;2.10;;;19.50;73.70;;;;;;5018559;28;20113;-66
2022/06/03 08:03:54;;;;;;;7.07;1.92;;;19.60;73.30;;;;;;5013524;28;20091;-66
2022/06/03 08:12:14;;;;;;;5.93;2.50;;;19.70;72.50;;;;;;5002260;28;20050;-66
2022/06/03 08:14:39;;;;;;;6.45;2.22;;;19.80;73.00;;;;;;5013908;28;20022;-65
2022/06/03 08:17:08;;;;;;;2.75;1.98;;;19.90;72.10;;;;;;5016634;28;20366;-66
2022/06/03 08:19:36;;;;;;;3.03;1.95;;;20.00;71.70;;;;;;5012502;28;20046;-65
2022/06/03 08:22:08;;;;;;;4.25;2.22;;;20.00;70.60;;;;;;5013194;28;20390;-66
2022/06/03 08:24:38;;;;;;;7.70;2.42;;;20.00;70.60;;;;;;5007857;28;20029;-66
2022/06/03 08:27:09;;;;;;;5.30;2.38;;;20.10;71.20;;;;;;5003368;28;20034;-67
2022/06/03 08:29:40;;;;;;;4.53;1.92;;;20.20;71.40;;;;;;5012565;28;20022;-67
2022/06/03 08:32:16;;;;;;;5.22;2.20;;;20.30;70.20;;;;;;5010444;28;20046;-67
2022/06/03 08:34:48;;;;;;;4.40;2.00;;;20.40;69.10;;;;;;5023861;28;20026;-66
2022/06/03 08:37:21;;;;;;;3.22;2.20;;;20.40;69.20;;;;;;5018842;28;20038;-66
2022/06/03 08:39:48;;;;;;;5.57;2.40;;;20.40;68.40;;;;;;5012888;28;20029;-65
2022/06/03 08:42:20;;;;;;;2.70;2.40;;;20.50;68.30;;;;;;5011136;28;20030;-64
2022/06/03 08:44:58;;;;;;;5.82;2.13;;;20.50;68.40;;;;;;5013439;28;20026;-64
2022/06/03 08:47:43;;;;;;;3.15;1.95;;;20.60;68.20;;;;;;5011283;28;20029;-64
2022/06/03 08:50:26;;;;;;;3.10;2.50;;;20.70;67.40;;;;;;5016936;28;20027;-64
2022/06/03 08:52:56;;;;;;;4.32;2.20;;;20.70;67.80;;;;;;5012241;28;20038;-64
2022/06/03 08:55:33;;;;;;;5.90;2.38;;;20.80;66.40;;;;;;5019971;28;20040;-64
2022/06/03 08:58:06;;;;;;;4.45;1.98;;;20.80;65.80;;;;;;5012263;28;20045;-64
2022/06/03 09:00:55;;;;;;;3.97;1.97;;;20.80;66.10;;;;;;5002585;28;20033;-64
2022/06/03 09:03:23;;;;;;;4.70;2.10;;;20.80;65.50;;;;;;4996457;28;20361;-64
2022/06/03 09:06:11;;;;;;;4.38;2.78;;;20.80;65.30;;;;;;5020154;28;20034;-64
2022/06/03 09:08:39;;;;;;;4.30;2.10;;;20.90;65.20;;;;;;5004137;28;20113;-64
2022/06/03 09:11:33;;;;;;;3.45;2.40;;;20.90;64.80;;;;;;5019292;28;20049;-64
2022/06/03 09:14:08;;;;;;;2.60;2.10;;;20.90;64.40;;;;;;5017059;28;20046;-64
2022/06/03 09:16:34;;;;;;;;;;;20.90;64.50;;;;;;4996120;28;20030;-63
2022/06/03 09:19:17;;;;;;;3.15;1.95;;;20.90;65.10;;;;;;5014671;28;19959;-63
2022/06/03 09:21:46;;;;;;;3.70;2.38;;;20.90;64.80;;;;;;5005126;28;20390;-64
2022/06/03 09:24:21;;;;;;;3.30;1.90;;;20.90;63.80;;;;;;5008875;28;20057;-64
2022/06/03 09:27:06;;;;;;;5.28;2.10;;;21.00;64.70;;;;;;4993900;28;20026;-64
2022/06/03 09:29:32;;;;;;;3.05;1.92;;;21.00;63.60;;;;;;5019241;28;20057;-64
2022/06/03 09:32:04;;;;;;;2.90;1.85;;;21.10;63.60;;;;;;5006120;28;20034;-64
2022/06/03 09:34:48;;;;;;;3.55;2.03;;;21.00;63.70;;;;;;5006234;28;20092;-64
2022/06/03 09:37:29;;;;;;;5.28;2.10;;;21.10;63.50;;;;;;5009942;28;20030;-64
2022/06/03 09:39:57;;;;;;;5.15;1.80;;;21.20;63.30;;;;;;5014240;28;20108;-64
2022/06/03 09:42:24;;;;;;;6.18;2.50;;;21.30;62.00;;;;;;5011041;28;20434;-64
2022/06/03 09:44:51;;;;;;;3.88;2.03;;;21.40;61.40;;;;;;4996913;28;20061;-63
2022/06/03 09:47:21;;;;;;;3.22;1.80;;;21.40;61.60;;;;;;5012900;28;20355;-63
2022/06/03 09:49:50;;;;;;;2.03;1.65;;;21.40;60.70;;;;;;5011164;28;20489;-63
2022/06/03 09:52:20;;;;;;;3.67;1.92;;;21.50;60.70;;;;;;5012123;28;20108;-64
2022/06/03 09:54:47;;;;;;;2.53;1.80;;;21.60;60.00;;;;;;4995301;28;20088;-64
2022/06/03 09:57:28;;;;;;;2.80;1.90;;;21.60;59.90;;;;;;5016006;28;20034;-64
2022/06/03 10:00:12;;;;;;;5.30;2.05;;;21.60;59.00;;;;;;5010131;28;20059;-64
2022/06/03 10:02:37;;;;;;;3.05;2.33;;;21.60;59.30;;;;;;5012960;28;20026;-64
2022/06/03 10:05:06;;;;;;;4.38;1.95;;;21.60;59.30;;;;;;5008241;28;20076;-64
2022/06/03 10:07:32;;;;;;;3.58;2.00;;;21.70;58.90;;;;;;5012707;28;20409;-64
2022/06/03 10:12:56;;;;;;;3.65;1.80;;;21.70;57.80;;;;;;5004810;28;20041;-64
2022/06/03 10:15:43;;;;;;;5.60;1.98;;;21.70;58.70;;;;;;5008916;28;20046;-63
2022/06/03 10:18:30;;;;;;;2.85;2.15;;;21.80;58.20;;;;;;5009100;28;20034;-63
2022/06/03 10:21:08;;;;;;;12.65;3.17;;;21.80;57.20;;;;;;5003655;28;20032;-64
2022/06/03 10:23:36;;;;;;;3.45;2.10;;;21.80;57.30;;;;;;4994708;28;20026;-63
2022/06/03 10:26:04;;;;;;;3.25;1.80;;;21.90;57.30;;;;;;5016916;28;20041;-63
2022/06/03 10:28:39;;;;;;;2.45;1.77;;;21.90;57.70;;;;;;4997533;28;20066;-63
2022/06/03 10:31:11;;;;;;;3.03;1.70;;;22.00;56.70;;;;;;5009961;28;20029;-63
2022/06/03 10:33:37;;;;;;;8.23;2.65;;;22.10;56.90;;;;;;5004900;28;20038;-64
2022/06/03 10:36:04;;;;;;;2.10;1.67;;;22.10;56.30;;;;;;5009468;28;20037;-65
2022/06/03 10:38:33;;;;;;;2.75;1.70;;;22.10;56.80;;;;;;5008252;28;20030;-64
2022/06/03 10:41:09;;;;;;;2.47;1.70;;;22.20;57.30;;;;;;5013240;28;20030;-64
2022/06/03 10:43:36;;;;;;;2.70;2.00;;;22.40;57.00;;;;;;5008621;28;20042;-63
2022/06/03 10:46:13;;;;;;;2.30;1.77;;;22.50;58.80;;;;;;5015644;28;20311;-63
2022/06/03 10:48:39;;;;;;;6.53;1.80;;;22.60;57.00;;;;;;5006120;28;20034;-64
2022/06/03 10:51:16;;;;;;;4.32;2.10;;;22.70;56.60;;;;;;5018865;28;20033;-63
2022/06/03 11:02:01;;;;;;;2.25;1.77;;;22.90;55.90;;;;;;5010142;28;20335;-64
2022/06/03 11:04:39;;;;;;;6.95;1.98;;;22.90;56.30;;;;;;5012154;28;20133;-64
2022/06/03 11:07:24;;;;;;;6.68;1.95;;;23.00;57.00;;;;;;5025440;28;20397;-64
2022/06/03 11:10:04;;;;;;;2.50;2.00;;;23.10;56.90;;;;;;5007186;28;20038;-64
2022/06/03 11:12:31;;;;;;;3.92;1.88;;;23.20;56.30;;;;;;5005963;28;20501;-65
2022/06/03 11:14:57;;;;;;;2.42;1.75;;;23.30;55.90;;;;;;5013407;28;20085;-65
2022/06/03 11:17:33;;;;;;;2.42;1.83;;;23.30;55.40;;;;;;5003414;28;20038;-65
2022/06/03 11:20:00;;;;;;;2.65;1.67;;;23.30;55.20;;;;;;5025668;28;20049;-64
2022/06/03 11:26:45;;;;;;;1.83;1.50;;;23.40;54.80;;;;;;5013913;28;20516;-64
2022/06/03 11:29:32;;;;;;;3.83;1.80;;;23.40;55.60;;;;;;5006624;28;20449;-64
2022/06/03 11:32:00;;;;;;;1.63;1.45;;;23.50;55.00;;;;;;5004720;28;20125;-64
2022/06/03 11:34:42;;;;;;;2.70;1.92;;;23.50;54.50;;;;;;5013034;28;20542;-64
2022/06/03 11:37:41;;;;;;;3.10;1.80;;;23.50;54.50;;;;;;5001576;28;20041;-64
2022/06/03 11:40:18;;;;;;;3.17;2.03;;;23.60;54.70;;;;;;5001944;28;20555;-64
2022/06/03 11:42:56;;;;;;;3.70;1.83;;;23.70;54.10;;;;;;5005536;28;20034;-64
2022/06/03 11:45:36;;;;;;;2.47;1.65;;;23.70;53.80;;;;;;4994108;28;20516;-64
2022/06/03 11:48:30;;;;;;;2.40;1.77;;;23.70;54.00;;;;;;5001800;28;20030;-64
2022/06/03 11:50:57;;;;;;;3.63;1.67;;;23.70;53.60;;;;;;5003139;28;20500;-64
2022/06/03 11:53:29;;;;;;;2.15;1.65;;;23.80;53.20;;;;;;5002062;28;20046;-63
2022/06/03 11:56:00;;;;;;;1.88;1.52;;;23.70;52.50;;;;;;5005945;28;20026;-63
2022/06/03 11:58:55;;;;;;;2.72;1.60;;;23.70;53.20;;;;;;5008513;28;20426;-63
2022/06/03 12:01:30;;;;;;;2.10;1.48;;;23.80;53.40;;;;;;4998649;28;20378;-63
2022/06/03 12:04:02;;;;;;;3.22;1.55;;;23.80;53.20;;;;;;5011660;28;20457;-63
2022/06/03 12:06:36;;;;;;;3.20;1.75;;;23.90;53.30;;;;;;5002953;28;20037;-64
2022/06/03 12:09:24;;;;;;;3.30;1.50;;;24.00;53.60;;;;;;5014504;28;20034;-64
2022/06/03 12:14:45;;;;;;;2.42;1.80;;;24.00;53.40;;;;;;5002296;28;20115;-64
2022/06/03 12:17:11;;;;;;;3.40;1.73;;;24.10;53.30;;;;;;5003790;28;20065;-64
2022/06/03 12:19:42;;;;;;;1.98;1.60;;;24.10;53.10;;;;;;4999260;28;20073;-64
2022/06/03 12:22:19;;;;;;;2.03;1.75;;;24.30;53.10;;;;;;5003790;28;20191;-65
2022/06/03 12:24:51;;;;;;;2.33;1.58;;;24.40;52.60;;;;;;5001460;28;20038;-65
2022/06/03 12:27:45;;;;;;;5.25;1.95;;;24.50;52.50;;;;;;5012450;28;20528;-65
2022/06/03 12:30:14;;;;;;;1.90;1.50;;;24.60;51.80;;;;;;4996625;28;20067;-64
2022/06/03 12:32:57;;;;;;;1.98;1.40;;;24.50;50.30;;;;;;5012449;28;20045;-64
2022/06/03 12:35:42;;;;;;;2.38;1.60;;;24.60;50.90;;;;;;5000106;28;20030;-67
2022/06/03 12:38:20;;;;;;;4.35;1.83;;;24.70;51.00;;;;;;4994581;28;20042;-64
2022/06/03 12:40:48;;;;;;;2.53;1.92;;;24.80;51.10;;;;;;5002869;28;20525;-62
2022/06/03 12:43:28;;;;;;;2.35;1.50;;;24.90;50.70;;;;;;5011904;28;20512;-63
2022/06/03 12:45:59;;;;;;;1.95;1.52;;;24.90;50.70;;;;;;5013877;28;20040;-64
2022/06/03 12:48:43;;;;;;;2.45;1.65;;;25.10;50.80;;;;;;5003728;28;20032;-64
2022/06/03 12:51:23;;;;;;;2.70;1.90;;;25.30;51.10;;;;;;5009732;28;20515;-63
2022/06/03 12:53:58;;;;;;;2.30;1.40;;;25.40;49.80;;;;;;5004967;28;20045;-64
2022/06/03 12:56:45;;;;;;;2.67;1.92;;;25.50;49.90;;;;;;5005680;28;20076;-64
2022/06/03 12:59:30;;;;;;;1.98;1.60;;;25.60;50.50;;;;;;5009509;28;20028;-64
2022/06/03 13:02:04;;;;;;;2.53;1.50;;;25.80;50.50;;;;;;5009873;28;20037;-64
2022/06/03 13:04:38;;;;;;;3.53;1.70;;;25.90;49.10;;;;;;5006769;28;20037;-63
2022/06/03 13:07:27;;;;;;;3.05;1.60;;;26.00;48.60;;;;;;5010056;28;20061;-64
2022/06/03 13:10:14;;;;;;;3.03;1.70;;;26.00;48.40;;;;;;4999822;28;20049;-64
2022/06/03 13:12:40;;;;;;;3.15;1.40;;;26.10;47.30;;;;;;5000050;28;20501;-64
2022/06/03 13:15:20;;;;;;;2.85;1.42;;;26.20;47.60;;;;;;5012542;28;20025;-64
2022/06/03 13:18:22;;;;;;;2.20;1.65;;;26.40;47.20;;;;;;5010535;28;20041;-63
2022/06/03 13:21:10;;;;;;;3.08;1.70;;;26.50;46.60;;;;;;5011171;28;20056;-64
2022/06/03 13:23:53;;;;;;;4.88;1.77;;;26.50;46.90;;;;;;5009926;28;20034;-64
2022/06/03 13:26:22;;;;;;;3.17;1.70;;;26.60;45.90;;;;;;5008576;28;20141;-64
2022/06/03 13:28:51;;;;;;;2.10;1.50;;;26.70;44.80;;;;;;5006425;28;20036;-64
2022/06/03 13:31:20;;;;;;;4.40;1.52;;;26.70;45.00;;;;;;5014617;28;20029;-64
2022/06/03 13:34:08;;;;;;;3.22;1.52;;;26.80;45.20;;;;;;5002821;28;20034;-64
2022/06/03 13:36:52;;;;;;;2.78;1.40;;;26.90;45.40;;;;;;4993947;28;20038;-63
2022/06/03 13:39:23;;;;;;;4.83;1.97;;;27.00;45.00;;;;;;5007058;28;20034;-64
2022/06/03 13:44:46;;;;;;;1.63;1.52;;;27.00;44.70;;;;;;5011779;28;20437;-63
2022/06/03 13:47:46;;;;;;;4.50;1.90;;;27.20;44.20;;;;;;5001414;28;20026;-63
2022/06/03 13:50:14;;;;;;;3.28;1.50;;;27.30;45.00;;;;;;4993670;28;20080;-63
2022/06/03 13:52:46;;;;;;;2.80;1.50;;;27.40;43.80;;;;;;5011784;28;20137;-63
2022/06/03 13:55:20;;;;;;;2.47;1.48;;;27.40;43.20;;;;;;5010082;28;20092;-64
2022/06/03 13:58:14;;;;;;;1.77;1.38;;;27.60;43.00;;;;;;4997773;28;20045;-64
2022/06/03 14:00:57;;;;;;;2.08;1.60;;;27.70;43.00;;;;;;4992811;28;20062;-64
2022/06/03 14:03:33;;;;;;;3.30;1.60;;;27.80;43.30;;;;;;5010450;28;20041;-64
2022/06/03 14:06:20;;;;;;;3.08;1.50;;;27.80;42.20;;;;;;5005967;28;20057;-64
2022/06/03 14:08:52;;;;;;;3.13;1.55;;;27.80;42.00;;;;;;4992634;28;20085;-64
2022/06/03 14:11:56;;;;;;;3.88;2.08;;;27.90;42.70;;;;;;5009588;28;20056;-63
2022/06/03 14:14:30;;;;;;;2.75;1.58;;;28.00;42.70;;;;;;5005771;28;20088;-64
2022/06/03 14:17:01;;;;;;;1.67;1.48;;;28.00;41.80;;;;;;5005025;28;20034;-64
2022/06/03 14:19:45;;;;;;;1.50;1.33;;;28.10;41.50;;;;;;4992377;28;20026;-64
2022/06/03 14:22:29;;;;;;;;;;;28.10;41.80;;;;;;5000466;28;20370;-64
2022/06/03 14:25:23;;;;;;;2.57;1.53;;;28.00;42.10;;;;;;5010850;28;19951;-64
2022/06/03 14:28:06;;;;;;;2.08;1.55;;;28.00;41.40;;;;;;5010457;28;20030;-64
2022/06/03 14:30:47;;;;;;;3.20;1.63;;;27.90;41.60;;;;;;4991282;28;20026;-63
2022/06/03 14:33:15;;;;;;;2.40;1.52;;;27.90;41.40;;;;;;5005839;28;20049;-63
2022/06/03 14:35:46;;;;;;;2.35;1.60;;;27.90;41.10;;;;;;5012313;28;20025;-64
2022/06/03 14:38:23;;;;;;;2.00;1.70;;;27.90;41.80;;;;;;5010141;28;20033;-64